sensor_id;sensor_type;location;lat;lon;timestamp;pressure;altitude;pressure_sealevel;temperature
80422;BMP280;69763;50.182;9.144;2024-03-08T04:28:52;99992.06;;;-1.47
80422;BMP280;69763;50.182;9.144;2024-03-08T04:31:17;99982.94;;;-1.58
80422;BMP280;69763;50.182;9.144;2024-03-08T04:33:43;99975.16;;;-1.66
80422;BMP280;69763;50.182;9.144;2024-03-08T04:36:08;99980.91;;;-1.67
80422;BMP280;69763;50.182;9.144;2024-03-08T04:38:33;99975.78;;;-1.61
80422;BMP280;69763;50.182;9.144;2024-03-08T04:40:59;99972.72;;;-1.60
80422;BMP280;69763;50.182;9.144;2024-03-08T04:43:24;99979.53;;;-1.59
80422;BMP280;69763;50.182;9.144;2024-03-08T04:45:52;99965.91;;;-1.61
80422;BMP280;69763;50.182;9.144;2024-03-08T04:48:17;99962.94;;;-1.63
80422;BMP280;69763;50.182;9.144;2024-03-08T04:50:43;99964.94;;;-1.67
80422;BMP280;69763;50.182;9.144;2024-03-08T04:53:08;99959.97;;;-1.65
80422;BMP280;69763;50.182;9.144;2024-03-08T04:55:34;99963.25;;;-1.61
80422;BMP280;69763;50.182;9.144;2024-03-08T04:57:59;99955.81;;;-1.66
80422;BMP280;69763;50.182;9.144;2024-03-08T05:00:24;99961.03;;;-1.62
80422;BMP280;69763;50.182;9.144;2024-03-08T05:02:51;99964.44;;;-1.62
80422;BMP280;69763;50.182;9.144;2024-03-08T05:05:16;99959.09;;;-1.62
80422;BMP280;69763;50.182;9.144;2024-03-08T05:07:42;99953.38;;;-1.60
80422;BMP280;69763;50.182;9.144;2024-03-08T05:10:07;99950.72;;;-1.60
80422;BMP280;69763;50.182;9.144;2024-03-08T05:12:33;99957.63;;;-1.63
80422;BMP280;69763;50.182;9.144;2024-03-08T05:14:58;99955.81;;;-1.66
80422;BMP280;69763;50.182;9.144;2024-03-08T05:17:24;99956.88;;;-1.76
80422;BMP280;69763;50.182;9.144;2024-03-08T05:19:50;99958.47;;;-1.79
80422;BMP280;69763;50.182;9.144;2024-03-08T05:22:16;99949.53;;;-1.85
80422;BMP280;69763;50.182;9.144;2024-03-08T05:24:41;99952.50;;;-1.83
80422;BMP280;69763;50.182;9.144;2024-03-08T05:27:07;99944.97;;;-1.84
80422;BMP280;69763;50.182;9.144;2024-03-08T05:29:32;99944.09;;;-1.94
80422;BMP280;69763;50.182;9.144;2024-03-08T05:31:57;99939.63;;;-1.97
80422;BMP280;69763;50.182;9.144;2024-03-08T05:34:23;99932.06;;;-1.98
80422;BMP280;69763;50.182;9.144;2024-03-08T05:36:50;99934.47;;;-2.17
80422;BMP280;69763;50.182;9.144;2024-03-08T05:39:16;99940.13;;;-2.15
80422;BMP280;69763;50.182;9.144;2024-03-08T05:41:42;99935.56;;;-2.14
80422;BMP280;69763;50.182;9.144;2024-03-08T05:44:08;99937.59;;;-2.06
80422;BMP280;69763;50.182;9.144;2024-03-08T05:46:33;99944.16;;;-2.10
80422;BMP280;69763;50.182;9.144;2024-03-08T05:48:58;99945.94;;;-2.20
80422;BMP280;69763;50.182;9.144;2024-03-08T05:51:24;99940.91;;;-2.30
80422;BMP280;69763;50.182;9.144;2024-03-08T05:53:51;99943.91;;;-2.28
80422;BMP280;69763;50.182;9.144;2024-03-08T05:56:16;99936.03;;;-2.32
80422;BMP280;69763;50.182;9.144;2024-03-08T05:58:41;99939.81;;;-2.33
80422;BMP280;69763;50.182;9.144;2024-03-08T06:01:07;99933.00;;;-2.34
80422;BMP280;69763;50.182;9.144;2024-03-08T06:03:32;99938.91;;;-2.26
80422;BMP280;69763;50.182;9.144;2024-03-08T06:05:58;99934.47;;;-2.17
80422;BMP280;69763;50.182;9.144;2024-03-08T06:08:23;99931.53;;;-2.06
80422;BMP280;69763;50.182;9.144;2024-03-08T06:10:50;99937.38;;;-1.98
80422;BMP280;69763;50.182;9.144;2024-03-08T06:13:15;99936.84;;;-1.93
80422;BMP280;69763;50.182;9.144;2024-03-08T06:15:40;99939.66;;;-1.84
80422;BMP280;69763;50.182;9.144;2024-03-08T06:18:06;99943.28;;;-1.78
80422;BMP280;69763;50.182;9.144;2024-03-08T06:20:31;99945.09;;;-1.75
80422;BMP280;69763;50.182;9.144;2024-03-08T06:22:57;99941.47;;;-1.69
80422;BMP280;69763;50.182;9.144;2024-03-08T06:25:22;99944.25;;;-1.72
80422;BMP280;69763;50.182;9.144;2024-03-08T06:27:49;99943.38;;;-1.69
80422;BMP280;69763;50.182;9.144;2024-03-08T06:30:14;99937.84;;;-1.62
80422;BMP280;69763;50.182;9.144;2024-03-08T06:32:40;99951.34;;;-1.56
80422;BMP280;69763;50.182;9.144;2024-03-08T06:35:06;99941.25;;;-1.49
80422;BMP280;69763;50.182;9.144;2024-03-08T06:37:32;99946.13;;;-1.47
80422;BMP280;69763;50.182;9.144;2024-03-08T06:39:57;99948.56;;;-1.40
80422;BMP280;69763;50.182;9.144;2024-03-08T06:42:22;99943.91;;;-1.36
80422;BMP280;69763;50.182;9.144;2024-03-08T06:44:49;99938.47;;;-1.33
80422;BMP280;69763;50.182;9.144;2024-03-08T06:47:14;99948.91;;;-1.25
80422;BMP280;69763;50.182;9.144;2024-03-08T06:49:40;99933.91;;;-1.19
80422;BMP280;69763;50.182;9.144;2024-03-08T06:52:05;99938.38;;;-1.16
80422;BMP280;69763;50.182;9.144;2024-03-08T06:54:31;99937.41;;;-1.22
80422;BMP280;69763;50.182;9.144;2024-03-08T06:56:56;99934.09;;;-1.14
80422;BMP280;69763;50.182;9.144;2024-03-08T06:59:21;99939.22;;;-1.07
80422;BMP280;69763;50.182;9.144;2024-03-08T07:01:48;99942.25;;;-0.95
80422;BMP280;69763;50.182;9.144;2024-03-08T07:04:13;99939.16;;;-0.94
80422;BMP280;69763;50.182;9.144;2024-03-08T07:06:39;99942.88;;;-0.91
80422;BMP280;69763;50.182;9.144;2024-03-08T07:09:04;99934.25;;;-0.83
80422;BMP280;69763;50.182;9.144;2024-03-08T07:11:30;99935.94;;;-0.76
80422;BMP280;69763;50.182;9.144;2024-03-08T07:13:55;99933.69;;;-0.78
80422;BMP280;69763;50.182;9.144;2024-03-08T07:16:20;99935.06;;;-0.73
80422;BMP280;69763;50.182;9.144;2024-03-08T07:18:47;99920.34;;;-0.65
80422;BMP280;69763;50.182;9.144;2024-03-08T07:21:12;99925.41;;;-0.58
80422;BMP280;69763;50.182;9.144;2024-03-08T07:23:38;99923.16;;;-0.47
80422;BMP280;69763;50.182;9.144;2024-03-08T07:26:03;99908.16;;;-0.32
80422;BMP280;69763;50.182;9.144;2024-03-08T07:28:29;99909.25;;;-0.20
80422;BMP280;69763;50.182;9.144;2024-03-08T07:30:54;99915.69;;;-0.08
80422;BMP280;69763;50.182;9.144;2024-03-08T07:33:20;99917.09;;;0.06
80422;BMP280;69763;50.182;9.144;2024-03-08T07:35:46;99913.00;;;0.23
80422;BMP280;69763;50.182;9.144;2024-03-08T07:38:12;99912.03;;;0.38
80422;BMP280;69763;50.182;9.144;2024-03-08T07:40:38;99916.81;;;0.53
80422;BMP280;69763;50.182;9.144;2024-03-08T07:43:03;99906.44;;;0.64
80422;BMP280;69763;50.182;9.144;2024-03-08T07:45:29;99903.81;;;0.82
80422;BMP280;69763;50.182;9.144;2024-03-08T07:47:54;99906.06;;;1.02
80422;BMP280;69763;50.182;9.144;2024-03-08T07:50:19;99897.91;;;1.15
80422;BMP280;69763;50.182;9.144;2024-03-08T07:52:46;99902.19;;;1.30
80422;BMP280;69763;50.182;9.144;2024-03-08T07:55:11;99899.97;;;1.47
80422;BMP280;69763;50.182;9.144;2024-03-08T07:57:37;99903.19;;;1.60
80422;BMP280;69763;50.182;9.144;2024-03-08T08:00:03;99901.78;;;1.74
80422;BMP280;69763;50.182;9.144;2024-03-08T08:02:28;99893.75;;;1.83
80422;BMP280;69763;50.182;9.144;2024-03-08T08:04:54;99896.88;;;1.91
80422;BMP280;69763;50.182;9.144;2024-03-08T08:07:19;99885.22;;;2.03
80422;BMP280;69763;50.182;9.144;2024-03-08T08:09:46;99880.38;;;2.16
80422;BMP280;69763;50.182;9.144;2024-03-08T08:12:11;99879.44;;;2.28
80422;BMP280;69763;50.182;9.144;2024-03-08T08:14:37;99879.66;;;2.39
80422;BMP280;69763;50.182;9.144;2024-03-08T08:17:02;99872.06;;;2.47
80422;BMP280;69763;50.182;9.144;2024-03-08T08:19:27;99871.28;;;2.56
80422;BMP280;69763;50.182;9.144;2024-03-08T08:21:53;99866.88;;;2.67
80422;BMP280;69763;50.182;9.144;2024-03-08T08:24:18;99867.78;;;2.79
80422;BMP280;69763;50.182;9.144;2024-03-08T08:26:45;99855.25;;;2.85
80422;BMP280;69763;50.182;9.144;2024-03-08T08:29:10;99855.63;;;2.93
80422;BMP280;69763;50.182;9.144;2024-03-08T08:31:36;99846.34;;;3.03
80422;BMP280;69763;50.182;9.144;2024-03-08T08:34:01;99852.34;;;3.12
80422;BMP280;69763;50.182;9.144;2024-03-08T08:36:27;99848.38;;;3.23
80422;BMP280;69763;50.182;9.144;2024-03-08T08:38:52;99848.53;;;3.34
80422;BMP280;69763;50.182;9.144;2024-03-08T08:41:17;99843.06;;;3.43
80422;BMP280;69763;50.182;9.144;2024-03-08T08:43:44;99840.97;;;3.47
80422;BMP280;69763;50.182;9.144;2024-03-08T08:46:10;99847.44;;;3.55
80422;BMP280;69763;50.182;9.144;2024-03-08T08:48:35;99848.81;;;3.65
80422;BMP280;69763;50.182;9.144;2024-03-08T08:51:00;99835.00;;;3.72
80422;BMP280;69763;50.182;9.144;2024-03-08T08:53:26;99837.09;;;3.83
80422;BMP280;69763;50.182;9.144;2024-03-08T08:55:51;99832.34;;;3.92
80422;BMP280;69763;50.182;9.144;2024-03-08T08:58:17;99832.44;;;3.98
80422;BMP280;69763;50.182;9.144;2024-03-08T09:00:43;99821.56;;;4.07
80422;BMP280;69763;50.182;9.144;2024-03-08T09:03:08;99823.13;;;4.14
80422;BMP280;69763;50.182;9.144;2024-03-08T09:05:34;99825.59;;;4.17
80422;BMP280;69763;50.182;9.144;2024-03-08T09:07:59;99821.25;;;4.20
80422;BMP280;69763;50.182;9.144;2024-03-08T09:10:25;99809.09;;;4.24
80422;BMP280;69763;50.182;9.144;2024-03-08T09:12:50;99816.53;;;4.35
80422;BMP280;69763;50.182;9.144;2024-03-08T09:15:16;99799.75;;;4.40
80422;BMP280;69763;50.182;9.144;2024-03-08T09:17:42;99801.00;;;4.45
80422;BMP280;69763;50.182;9.144;2024-03-08T09:20:08;99794.50;;;4.51
80422;BMP280;69763;50.182;9.144;2024-03-08T09:22:34;99796.28;;;4.60
80422;BMP280;69763;50.182;9.144;2024-03-08T09:25:00;99792.47;;;4.67
80422;BMP280;69763;50.182;9.144;2024-03-08T09:27:25;99789.84;;;4.78
80422;BMP280;69763;50.182;9.144;2024-03-08T09:29:50;99773.31;;;4.85
80422;BMP280;69763;50.182;9.144;2024-03-08T09:32:16;99780.97;;;4.92
80422;BMP280;69763;50.182;9.144;2024-03-08T09:34:42;99770.50;;;4.99
80422;BMP280;69763;50.182;9.144;2024-03-08T09:37:08;99773.25;;;5.05
80422;BMP280;69763;50.182;9.144;2024-03-08T09:39:33;99762.31;;;5.14
80422;BMP280;69763;50.182;9.144;2024-03-08T09:41:59;99754.84;;;5.29
80422;BMP280;69763;50.182;9.144;2024-03-08T09:44:24;99754.66;;;5.38
80422;BMP280;69763;50.182;9.144;2024-03-08T09:46:50;99749.56;;;5.46
80422;BMP280;69763;50.182;9.144;2024-03-08T09:49:16;99747.16;;;5.54
80422;BMP280;69763;50.182;9.144;2024-03-08T09:51:42;99740.59;;;5.60
80422;BMP280;69763;50.182;9.144;2024-03-08T09:54:08;99741.59;;;5.63
80422;BMP280;69763;50.182;9.144;2024-03-08T09:56:34;99734.00;;;5.67
80422;BMP280;69763;50.182;9.144;2024-03-08T09:59:00;99738.22;;;5.73
80422;BMP280;69763;50.182;9.144;2024-03-08T10:01:25;99722.31;;;5.70
80422;BMP280;69763;50.182;9.144;2024-03-08T10:03:52;99711.84;;;5.78
80422;BMP280;69763;50.182;9.144;2024-03-08T10:06:22;99708.91;;;5.87
80422;BMP280;69763;50.182;9.144;2024-03-08T10:08:49;99707.47;;;5.97
80422;BMP280;69763;50.182;9.144;2024-03-08T10:11:14;99712.63;;;6.06
80422;BMP280;69763;50.182;9.144;2024-03-08T10:13:40;99701.63;;;6.09
80422;BMP280;69763;50.182;9.144;2024-03-08T10:16:06;99707.75;;;6.21
80422;BMP280;69763;50.182;9.144;2024-03-08T10:18:32;99697.75;;;6.27
80422;BMP280;69763;50.182;9.144;2024-03-08T10:21:06;99692.84;;;6.26
80422;BMP280;69763;50.182;9.144;2024-03-08T10:23:32;99687.97;;;6.30
80422;BMP280;69763;50.182;9.144;2024-03-08T10:26:09;99685.97;;;6.36
80422;BMP280;69763;50.182;9.144;2024-03-08T10:28:35;99692.34;;;6.38
80422;BMP280;69763;50.182;9.144;2024-03-08T10:31:00;99671.53;;;6.44
80422;BMP280;69763;50.182;9.144;2024-03-08T10:33:25;99675.19;;;6.52
80422;BMP280;69763;50.182;9.144;2024-03-08T10:35:51;99676.94;;;6.61
80422;BMP280;69763;50.182;9.144;2024-03-08T10:38:19;99664.69;;;6.71
80422;BMP280;69763;50.182;9.144;2024-03-08T10:40:46;99674.94;;;6.73
80422;BMP280;69763;50.182;9.144;2024-03-08T10:43:23;99670.31;;;6.79
80422;BMP280;69763;50.182;9.144;2024-03-08T10:45:48;99669.03;;;6.85
80422;BMP280;69763;50.182;9.144;2024-03-08T10:48:26;99666.56;;;6.93
80422;BMP280;69763;50.182;9.144;2024-03-08T10:50:52;99667.53;;;6.96
80422;BMP280;69763;50.182;9.144;2024-03-08T10:53:18;99664.13;;;7.01
80422;BMP280;69763;50.182;9.144;2024-03-08T10:55:45;99656.00;;;7.06
80422;BMP280;69763;50.182;9.144;2024-03-08T10:58:12;99666.03;;;7.11
80422;BMP280;69763;50.182;9.144;2024-03-08T11:00:38;99651.06;;;7.21
80422;BMP280;69763;50.182;9.144;2024-03-08T11:03:04;99653.75;;;7.27
80422;BMP280;69763;50.182;9.144;2024-03-08T11:05:36;99648.97;;;7.44
80422;BMP280;69763;50.182;9.144;2024-03-08T11:08:02;99647.94;;;7.58
80422;BMP280;69763;50.182;9.144;2024-03-08T11:10:28;99646.47;;;7.57
80422;BMP280;69763;50.182;9.144;2024-03-08T11:12:53;99640.06;;;7.60
80422;BMP280;69763;50.182;9.144;2024-03-08T11:15:20;99638.06;;;7.66
80422;BMP280;69763;50.182;9.144;2024-03-08T11:17:47;99631.19;;;7.71
80422;BMP280;69763;50.182;9.144;2024-03-08T11:20:13;99623.19;;;7.90
80422;BMP280;69763;50.182;9.144;2024-03-08T11:22:48;99631.19;;;8.01
80422;BMP280;69763;50.182;9.144;2024-03-08T11:25:32;99619.41;;;8.04
80422;BMP280;69763;50.182;9.144;2024-03-08T11:28:07;99619.84;;;8.14
80422;BMP280;69763;50.182;9.144;2024-03-08T11:30:34;99618.13;;;8.11
80422;BMP280;69763;50.182;9.144;2024-03-08T11:33:00;99607.13;;;8.08
80422;BMP280;69763;50.182;9.144;2024-03-08T11:35:26;99605.53;;;8.19
80422;BMP280;69763;50.182;9.144;2024-03-08T11:37:51;99597.72;;;8.39
80422;BMP280;69763;50.182;9.144;2024-03-08T11:40:17;99603.81;;;8.45
80422;BMP280;69763;50.182;9.144;2024-03-08T11:42:44;99596.16;;;8.50
80422;BMP280;69763;50.182;9.144;2024-03-08T11:45:10;99599.63;;;8.44
80422;BMP280;69763;50.182;9.144;2024-03-08T11:47:36;99595.19;;;8.47
80422;BMP280;69763;50.182;9.144;2024-03-08T11:50:02;99591.19;;;8.54
80422;BMP280;69763;50.182;9.144;2024-03-08T11:52:28;99582.66;;;8.50
80422;BMP280;69763;50.182;9.144;2024-03-08T11:54:54;99588.28;;;8.52
80422;BMP280;69763;50.182;9.144;2024-03-08T11:57:20;99587.19;;;8.60
80422;BMP280;69763;50.182;9.144;2024-03-08T11:59:49;99575.97;;;8.56
80422;BMP280;69763;50.182;9.144;2024-03-08T12:02:15;99571.41;;;8.45
80422;BMP280;69763;50.182;9.144;2024-03-08T12:04:42;99567.13;;;8.56
80422;BMP280;69763;50.182;9.144;2024-03-08T12:07:09;99562.25;;;8.73
80422;BMP280;69763;50.182;9.144;2024-03-08T12:09:35;99558.34;;;8.74
80422;BMP280;69763;50.182;9.144;2024-03-08T12:12:00;99567.22;;;8.69
80422;BMP280;69763;50.182;9.144;2024-03-08T12:14:26;99554.44;;;8.69
80422;BMP280;69763;50.182;9.144;2024-03-08T12:16:51;99551.16;;;8.76
80422;BMP280;69763;50.182;9.144;2024-03-08T12:19:17;99556.56;;;8.76
80422;BMP280;69763;50.182;9.144;2024-03-08T12:21:44;99551.38;;;8.78
80422;BMP280;69763;50.182;9.144;2024-03-08T12:24:10;99550.66;;;8.78
80422;BMP280;69763;50.182;9.144;2024-03-08T12:26:36;99550.72;;;8.91
80422;BMP280;69763;50.182;9.144;2024-03-08T12:29:14;99544.50;;;9.15
80422;BMP280;69763;50.182;9.144;2024-03-08T12:31:41;99539.91;;;9.29
80422;BMP280;69763;50.182;9.144;2024-03-08T12:34:07;99544.22;;;9.18
80422;BMP280;69763;50.182;9.144;2024-03-08T12:36:33;99531.72;;;9.15
80422;BMP280;69763;50.182;9.144;2024-03-08T12:38:59;99533.91;;;9.17
80422;BMP280;69763;50.182;9.144;2024-03-08T12:41:25;99532.03;;;9.12
80422;BMP280;69763;50.182;9.144;2024-03-08T12:43:50;99524.28;;;9.03
80422;BMP280;69763;50.182;9.144;2024-03-08T12:46:15;99513.38;;;9.08
80422;BMP280;69763;50.182;9.144;2024-03-08T12:48:41;99514.69;;;9.20
80422;BMP280;69763;50.182;9.144;2024-03-08T12:51:07;99516.50;;;9.31
80422;BMP280;69763;50.182;9.144;2024-03-08T12:53:33;99517.66;;;9.36
80422;BMP280;69763;50.182;9.144;2024-03-08T12:55:59;99517.78;;;9.43
80422;BMP280;69763;50.182;9.144;2024-03-08T12:58:25;99513.72;;;9.37
80422;BMP280;69763;50.182;9.144;2024-03-08T13:00:50;99498.41;;;9.39
80422;BMP280;69763;50.182;9.144;2024-03-08T13:03:16;99495.72;;;9.39
80422;BMP280;69763;50.182;9.144;2024-03-08T13:05:41;99496.88;;;9.44
80422;BMP280;69763;50.182;9.144;2024-03-08T13:08:06;99489.47;;;9.44
80422;BMP280;69763;50.182;9.144;2024-03-08T13:10:32;99491.78;;;9.53
80422;BMP280;69763;50.182;9.144;2024-03-08T13:12:59;99482.84;;;9.58
80422;BMP280;69763;50.182;9.144;2024-03-08T13:15:24;99481.19;;;9.68
80422;BMP280;69763;50.182;9.144;2024-03-08T13:17:50;99480.69;;;9.70
80422;BMP280;69763;50.182;9.144;2024-03-08T13:20:15;99471.41;;;9.65
80422;BMP280;69763;50.182;9.144;2024-03-08T13:22:40;99469.84;;;9.70
80422;BMP280;69763;50.182;9.144;2024-03-08T13:25:06;99468.63;;;9.84
80422;BMP280;69763;50.182;9.144;2024-03-08T13:27:32;99469.53;;;10.00
80422;BMP280;69763;50.182;9.144;2024-03-08T13:29:58;99468.63;;;10.11
80422;BMP280;69763;50.182;9.144;2024-03-08T13:32:24;99467.66;;;10.21
80422;BMP280;69763;50.182;9.144;2024-03-08T13:34:49;99461.41;;;10.26
80422;BMP280;69763;50.182;9.144;2024-03-08T13:37:15;99453.78;;;10.38
80422;BMP280;69763;50.182;9.144;2024-03-08T13:39:40;99457.25;;;10.38
80422;BMP280;69763;50.182;9.144;2024-03-08T13:42:06;99455.97;;;10.26
80422;BMP280;69763;50.182;9.144;2024-03-08T13:44:32;99450.56;;;10.26
80422;BMP280;69763;50.182;9.144;2024-03-08T13:46:58;99432.75;;;10.31
80422;BMP280;69763;50.182;9.144;2024-03-08T13:49:24;99435.03;;;10.27
80422;BMP280;69763;50.182;9.144;2024-03-08T13:51:49;99438.38;;;10.33
80422;BMP280;69763;50.182;9.144;2024-03-08T13:54:14;99433.38;;;10.37
80422;BMP280;69763;50.182;9.144;2024-03-08T13:56:40;99431.19;;;10.35
80422;BMP280;69763;50.182;9.144;2024-03-08T13:59:05;99428.03;;;10.44
80422;BMP280;69763;50.182;9.144;2024-03-08T14:01:38;99420.50;;;10.51
80422;BMP280;69763;50.182;9.144;2024-03-08T14:04:05;99405.22;;;10.61
80422;BMP280;69763;50.182;9.144;2024-03-08T14:06:30;99405.03;;;10.59
80422;BMP280;69763;50.182;9.144;2024-03-08T14:08:55;99401.28;;;10.62
80422;BMP280;69763;50.182;9.144;2024-03-08T14:11:21;99412.06;;;10.75
80422;BMP280;69763;50.182;9.144;2024-03-08T14:13:46;99397.06;;;10.74
80422;BMP280;69763;50.182;9.144;2024-03-08T14:16:12;99386.94;;;10.74
80422;BMP280;69763;50.182;9.144;2024-03-08T14:18:37;99378.72;;;10.67
80422;BMP280;69763;50.182;9.144;2024-03-08T14:21:04;99375.69;;;10.70
80422;BMP280;69763;50.182;9.144;2024-03-08T14:23:30;99379.53;;;10.75
80422;BMP280;69763;50.182;9.144;2024-03-08T14:25:55;99377.03;;;10.77
80422;BMP280;69763;50.182;9.144;2024-03-08T14:28:21;99370.06;;;10.68
80422;BMP280;69763;50.182;9.144;2024-03-08T14:30:46;99368.50;;;10.73
80422;BMP280;69763;50.182;9.144;2024-03-08T14:33:11;99361.09;;;10.73
80422;BMP280;69763;50.182;9.144;2024-03-08T14:35:38;99364.88;;;10.70
80422;BMP280;69763;50.182;9.144;2024-03-08T14:38:06;99359.88;;;10.61
80422;BMP280;69763;50.182;9.144;2024-03-08T14:40:31;99347.22;;;10.56
80422;BMP280;69763;50.182;9.144;2024-03-08T14:42:57;99333.44;;;10.54
80422;BMP280;69763;50.182;9.144;2024-03-08T14:45:23;99345.75;;;10.55
80422;BMP280;69763;50.182;9.144;2024-03-08T14:47:50;99334.00;;;10.53
80422;BMP280;69763;50.182;9.144;2024-03-08T14:50:16;99334.53;;;10.51
80422;BMP280;69763;50.182;9.144;2024-03-08T14:52:41;99328.69;;;10.47
80422;BMP280;69763;50.182;9.144;2024-03-08T14:55:08;99330.66;;;10.46
80422;BMP280;69763;50.182;9.144;2024-03-08T14:57:34;99321.69;;;10.52
80422;BMP280;69763;50.182;9.144;2024-03-08T15:00:00;99316.53;;;10.61
80422;BMP280;69763;50.182;9.144;2024-03-08T15:02:25;99307.16;;;10.62
80422;BMP280;69763;50.182;9.144;2024-03-08T15:04:50;99310.38;;;10.61
80422;BMP280;69763;50.182;9.144;2024-03-08T15:07:16;99311.31;;;10.63
80422;BMP280;69763;50.182;9.144;2024-03-08T15:09:42;99300.47;;;10.63
80422;BMP280;69763;50.182;9.144;2024-03-08T15:12:09;99293.66;;;10.70
80422;BMP280;69763;50.182;9.144;2024-03-08T15:14:39;99294.59;;;10.72
80422;BMP280;69763;50.182;9.144;2024-03-08T15:17:05;99286.47;;;10.72
80422;BMP280;69763;50.182;9.144;2024-03-08T15:19:30;99285.38;;;10.75
80422;BMP280;69763;50.182;9.144;2024-03-08T15:21:56;99274.53;;;10.75
80422;BMP280;69763;50.182;9.144;2024-03-08T15:24:21;99260.84;;;10.81
80422;BMP280;69763;50.182;9.144;2024-03-08T15:26:46;99276.28;;;10.86
80422;BMP280;69763;50.182;9.144;2024-03-08T15:29:13;99278.78;;;10.84
80422;BMP280;69763;50.182;9.144;2024-03-08T15:31:38;99269.91;;;10.83
80422;BMP280;69763;50.182;9.144;2024-03-08T15:34:04;99266.84;;;10.87
80422;BMP280;69763;50.182;9.144;2024-03-08T15:36:29;99271.75;;;10.88
80422;BMP280;69763;50.182;9.144;2024-03-08T15:38:55;99274.59;;;10.83
80422;BMP280;69763;50.182;9.144;2024-03-08T15:41:20;99267.88;;;10.76
80422;BMP280;69763;50.182;9.144;2024-03-08T15:43:45;99266.25;;;10.73
80422;BMP280;69763;50.182;9.144;2024-03-08T15:46:12;99265.69;;;10.75
80422;BMP280;69763;50.182;9.144;2024-03-08T15:48:38;99259.38;;;10.72
80422;BMP280;69763;50.182;9.144;2024-03-08T15:51:04;99268.03;;;10.71
80422;BMP280;69763;50.182;9.144;2024-03-08T15:53:29;99259.69;;;10.69
80422;BMP280;69763;50.182;9.144;2024-03-08T15:55:55;99263.47;;;10.66
80422;BMP280;69763;50.182;9.144;2024-03-08T15:58:20;99261.88;;;10.70
80422;BMP280;69763;50.182;9.144;2024-03-08T16:00:46;99250.69;;;10.74
80422;BMP280;69763;50.182;9.144;2024-03-08T16:03:14;99255.00;;;10.69
80422;BMP280;69763;50.182;9.144;2024-03-08T16:05:40;99252.28;;;10.69
80422;BMP280;69763;50.182;9.144;2024-03-08T16:08:06;99244.72;;;10.75
80422;BMP280;69763;50.182;9.144;2024-03-08T16:10:31;99240.25;;;10.78
80422;BMP280;69763;50.182;9.144;2024-03-08T16:12:57;99231.03;;;10.81
80422;BMP280;69763;50.182;9.144;2024-03-08T16:15:22;99232.91;;;10.86
80422;BMP280;69763;50.182;9.144;2024-03-08T16:17:48;99226.75;;;10.85
80422;BMP280;69763;50.182;9.144;2024-03-08T16:20:15;99223.63;;;10.81
80422;BMP280;69763;50.182;9.144;2024-03-08T16:22:42;99226.84;;;10.72
80422;BMP280;69763;50.182;9.144;2024-03-08T16:25:08;99225.47;;;10.58
80422;BMP280;69763;50.182;9.144;2024-03-08T16:27:33;99227.72;;;10.46
80422;BMP280;69763;50.182;9.144;2024-03-08T16:29:59;99241.03;;;10.37
80422;BMP280;69763;50.182;9.144;2024-03-08T16:32:24;99225.75;;;10.26
80422;BMP280;69763;50.182;9.144;2024-03-08T16:34:49;99225.81;;;10.13
80422;BMP280;69763;50.182;9.144;2024-03-08T16:37:16;99228.28;;;10.03
80422;BMP280;69763;50.182;9.144;2024-03-08T16:39:41;99226.94;;;9.97
80422;BMP280;69763;50.182;9.144;2024-03-08T16:42:07;99226.16;;;9.89
80422;BMP280;69763;50.182;9.144;2024-03-08T16:44:32;99228.78;;;9.81
80422;BMP280;69763;50.182;9.144;2024-03-08T16:46:59;99234.22;;;9.68
80422;BMP280;69763;50.182;9.144;2024-03-08T16:49:24;99224.50;;;9.52
80422;BMP280;69763;50.182;9.144;2024-03-08T16:51:49;99226.41;;;9.31
80422;BMP280;69763;50.182;9.144;2024-03-08T16:54:16;99227.53;;;9.09
80422;BMP280;69763;50.182;9.144;2024-03-08T16:56:41;99229.94;;;8.86
80422;BMP280;69763;50.182;9.144;2024-03-08T16:59:07;99232.00;;;8.67
80422;BMP280;69763;50.182;9.144;2024-03-08T17:01:32;99227.44;;;8.43
80422;BMP280;69763;50.182;9.144;2024-03-08T17:03:58;99223.59;;;8.25
80422;BMP280;69763;50.182;9.144;2024-03-08T17:06:23;99225.81;;;8.08
80422;BMP280;69763;50.182;9.144;2024-03-08T17:08:49;99226.72;;;7.79
80422;BMP280;69763;50.182;9.144;2024-03-08T17:11:15;99221.94;;;7.47
80422;BMP280;69763;50.182;9.144;2024-03-08T17:13:41;99219.59;;;7.19
80422;BMP280;69763;50.182;9.144;2024-03-08T17:16:06;99223.44;;;7.00
80422;BMP280;69763;50.182;9.144;2024-03-08T17:18:32;99224.66;;;6.74
80422;BMP280;69763;50.182;9.144;2024-03-08T17:20:57;99228.81;;;6.45
80422;BMP280;69763;50.182;9.144;2024-03-08T17:23:23;99232.78;;;6.33
80422;BMP280;69763;50.182;9.144;2024-03-08T17:25:48;99221.66;;;6.18
80422;BMP280;69763;50.182;9.144;2024-03-08T17:28:15;99227.13;;;6.07
80422;BMP280;69763;50.182;9.144;2024-03-08T17:30:40;99232.59;;;5.85
80422;BMP280;69763;50.182;9.144;2024-03-08T17:33:06;99228.06;;;5.57
80422;BMP280;69763;50.182;9.144;2024-03-08T17:35:32;99220.06;;;5.40
80422;BMP280;69763;50.182;9.144;2024-03-08T17:37:58;99222.25;;;5.36
80422;BMP280;69763;50.182;9.144;2024-03-08T17:40:25;99214.22;;;5.31
80422;BMP280;69763;50.182;9.144;2024-03-08T17:42:51;99222.59;;;5.16
80422;BMP280;69763;50.182;9.144;2024-03-08T17:45:18;99223.81;;;4.98
80422;BMP280;69763;50.182;9.144;2024-03-08T17:47:44;99222.09;;;4.84
80422;BMP280;69763;50.182;9.144;2024-03-08T17:50:09;99226.53;;;4.65
80422;BMP280;69763;50.182;9.144;2024-03-08T17:52:35;99217.97;;;4.50
80422;BMP280;69763;50.182;9.144;2024-03-08T17:55:00;99222.09;;;4.45
80422;BMP280;69763;50.182;9.144;2024-03-08T17:57:26;99224.78;;;4.40
80422;BMP280;69763;50.182;9.144;2024-03-08T17:59:51;99223.09;;;4.42
80422;BMP280;69763;50.182;9.144;2024-03-08T18:02:18;99219.19;;;4.49
80422;BMP280;69763;50.182;9.144;2024-03-08T18:04:43;99223.34;;;4.44
80422;BMP280;69763;50.182;9.144;2024-03-08T18:07:08;99216.47;;;4.38
80422;BMP280;69763;50.182;9.144;2024-03-08T18:09:34;99219.41;;;4.34
80422;BMP280;69763;50.182;9.144;2024-03-08T18:11:59;99215.97;;;4.34
80422;BMP280;69763;50.182;9.144;2024-03-08T18:14:25;99219.63;;;4.19
80422;BMP280;69763;50.182;9.144;2024-03-08T18:16:50;99223.75;;;4.09
80422;BMP280;69763;50.182;9.144;2024-03-08T18:19:17;99214.19;;;3.91
80422;BMP280;69763;50.182;9.144;2024-03-08T18:21:42;99211.00;;;3.87
80422;BMP280;69763;50.182;9.144;2024-03-08T18:24:07;99208.84;;;3.97
80422;BMP280;69763;50.182;9.144;2024-03-08T18:26:33;99208.81;;;3.91
80422;BMP280;69763;50.182;9.144;2024-03-08T18:28:58;99204.16;;;3.81
80422;BMP280;69763;50.182;9.144;2024-03-08T18:31:24;99196.31;;;3.72
80422;BMP280;69763;50.182;9.144;2024-03-08T18:33:49;99196.56;;;3.68
80422;BMP280;69763;50.182;9.144;2024-03-08T18:36:16;99199.03;;;3.83